Time;durP1;ratioP1;P1;durP2;ratioP2;P2;SDS_P1;SDS_P2;PMS_P1;PMS_P2;Temp;Humidity;BMP_temperature;BMP_pressure;BME280_temperature;BME280_humidity;BME280_pressure;Samples;Min_cycle;Max_cycle;Signal;HPM_P1;HPM_P2
2023/05/07 00:00:34;;;;;;;;;;;13.30;99.90;;;;;;5092379;28;20383;-86
2023/05/07 00:03:00;;;;;;;8.40;6.32;;;13.30;99.90;;;;;;5092275;28;19908;-86
2023/05/07 00:05:25;;;;;;;;;;;13.30;99.90;;;;;;5092413;28;20028;-85
2023/05/07 00:07:52;;;;;;;16.13;8.85;;;13.20;99.90;;;;;;5091313;28;19921;-85
2023/05/07 00:10:18;;;;;;;9.93;6.88;;;13.20;99.90;;;;;;5090893;28;20108;-84
2023/05/07 00:12:44;;;;;;;8.25;6.93;;;13.10;99.90;;;;;;5090079;28;20028;-86
2023/05/07 00:15:10;;;;;;;;;;;13.10;99.90;;;;;;5091995;28;20035;-85
2023/05/07 00:17:36;;;;;;;7.88;6.13;;;13.00;99.90;;;;;;5091486;28;19908;-85
2023/05/07 00:20:03;;;;;;;8.80;5.88;;;13.00;99.90;;;;;;5091314;28;20142;-85
2023/05/07 00:22:30;;;;;;;7.32;5.65;;;13.00;99.90;;;;;;5091493;28;20553;-85
2023/05/07 00:24:56;;;;;;;7.38;5.93;;;13.00;99.90;;;;;;5091371;28;20028;-86
2023/05/07 00:27:21;;;;;;;;;;;13.00;99.90;;;;;;5092183;28;20641;-86
2023/05/07 00:29:47;;;;;;;9.88;5.82;;;12.90;99.90;;;;;;5091723;28;20383;-85
2023/05/07 00:32:13;;;;;;;;;;;12.90;99.90;;;;;;5091830;28;20056;-86
2023/05/07 00:34:39;;;;;;;6.88;5.68;;;12.90;99.90;;;;;;5091260;28;19965;-85
2023/05/07 00:37:07;;;;;;;10.05;6.18;;;12.80;99.90;;;;;;5091190;28;20519;-87
2023/05/07 00:39:33;;;;;;;7.50;6.13;;;12.80;99.90;;;;;;5091511;28;20036;-84
2023/05/07 00:41:58;;;;;;;;;;;12.80;99.90;;;;;;5095213;28;20533;-85
2023/05/07 00:44:24;;;;;;;9.15;6.63;;;12.80;99.90;;;;;;5094819;28;19911;-85
2023/05/07 00:46:51;;;;;;;11.18;7.88;;;12.80;99.90;;;;;;5095766;28;20063;-86
2023/05/07 00:49:17;;;;;;;10.63;7.18;;;12.70;99.90;;;;;;5095433;28;20072;-86
2023/05/07 00:51:43;;;;;;;12.23;6.40;;;12.70;99.90;;;;;;5095488;28;20028;-85
2023/05/07 00:54:09;;;;;;;9.32;7.65;;;12.70;99.90;;;;;;5095209;28;20396;-85
2023/05/07 00:56:35;;;;;;;;;;;12.70;99.90;;;;;;5096610;28;20024;-85
2023/05/07 00:59:02;;;;;;;7.88;6.07;;;12.70;99.90;;;;;;5092302;28;19916;-83
2023/05/07 01:01:28;;;;;;;9.45;6.93;;;12.70;99.90;;;;;;5096115;28;20020;-86
2023/05/07 01:03:53;;;;;;;;;;;12.60;99.90;;;;;;5095309;28;20028;-86
2023/05/07 01:06:21;;;;;;;9.57;7.07;;;12.60;99.90;;;;;;5094721;28;20296;-86
2023/05/07 01:08:48;;;;;;;10.15;7.95;;;12.60;99.90;;;;;;5095039;28;20028;-85
2023/05/07 01:11:14;;;;;;;10.13;8.00;;;12.60;99.90;;;;;;5095282;28;20028;-70
2023/05/07 01:13:41;;;;;;;10.13;8.00;;;12.60;99.90;;;;;;5095720;28;20035;-86
2023/05/07 01:16:08;;;;;;;11.15;8.55;;;12.60;99.90;;;;;;5094903;28;20020;-86
2023/05/07 01:18:33;;;;;;;10.45;7.97;;;12.60;99.90;;;;;;5093765;28;20101;-86
2023/05/07 01:21:01;;;;;;;;;;;12.60;99.90;;;;;;5092392;28;20028;-86
2023/05/07 01:23:28;;;;;;;11.20;7.65;;;12.60;99.90;;;;;;5093177;28;19943;-85
2023/05/07 01:25:54;;;;;;;10.23;7.95;;;12.70;99.90;;;;;;5093302;28;20452;-88
2023/05/07 01:28:20;;;;;;;11.80;7.03;;;12.70;99.90;;;;;;5094081;28;20039;-86
2023/05/07 01:30:51;;;;;;;;;;;12.70;99.90;;;;;;5096700;28;20016;-86
2023/05/07 01:33:23;;;;;;;10.20;7.93;;;12.70;99.90;;;;;;5093755;28;19957;-86
2023/05/07 01:35:53;;;;;;;9.30;6.65;;;12.80;99.90;;;;;;5094834;28;20032;-85
2023/05/07 01:38:20;;;;;;;13.60;8.65;;;12.70;99.90;;;;;;5094275;28;20085;-86
2023/05/07 01:40:46;;;;;;;11.80;7.85;;;12.70;99.90;;;;;;5093336;28;20031;-85
2023/05/07 01:43:11;;;;;;;;;;;12.70;99.90;;;;;;5092924;28;20024;-84
2023/05/07 01:45:38;;;;;;;26.38;11.60;;;12.60;99.90;;;;;;5094304;28;19904;-86
2023/05/07 01:48:06;;;;;;;26.75;13.25;;;12.60;99.90;;;;;;5096028;28;20081;-86
2023/05/07 01:50:33;;;;;;;23.92;11.27;;;12.60;99.90;;;;;;5094401;28;20488;-86
2023/05/07 01:52:59;;;;;;;20.40;10.75;;;12.60;99.90;;;;;;5093861;28;20419;-86
2023/05/07 01:55:24;;;;;;;16.95;8.00;;;12.60;99.90;;;;;;5095883;28;20074;-85
2023/05/07 01:57:50;;;;;;;;;;;12.60;99.90;;;;;;5094778;28;20020;-86
2023/05/07 02:00:17;;;;;;;10.55;7.10;;;12.50;99.90;;;;;;5094233;28;19922;-86
2023/05/07 02:02:43;;;;;;;8.85;6.75;;;12.50;99.90;;;;;;5092245;28;20024;-86
2023/05/07 02:05:08;;;;;;;;;;;12.50;99.90;;;;;;5093866;28;20047;-84
2023/05/07 02:07:34;;;;;;;9.75;7.93;;;12.40;99.90;;;;;;5093715;28;19908;-86
2023/05/07 02:10:00;;;;;;;;;;;12.40;99.90;;;;;;5093953;28;20028;-85
2023/05/07 02:12:25;;;;;;;13.75;8.10;;;12.40;99.90;;;;;;5093334;28;19903;-86
2023/05/07 02:14:51;;;;;;;;;;;12.50;99.90;;;;;;5094037;28;20491;-86
2023/05/07 02:17:16;;;;;;;;;;;12.50;99.90;;;;;;5094352;28;19904;-85
2023/05/07 02:19:42;;;;;;;;;;;12.50;99.90;;;;;;5094178;28;19916;-86
2023/05/07 02:22:07;;;;;;;;;;;12.50;99.90;;;;;;5093942;28;19904;-86
2023/05/07 02:24:33;;;;;;;;;;;12.60;99.90;;;;;;5092754;28;19908;-86
2023/05/07 02:26:58;;;;;;;;;;;12.60;99.90;;;;;;5092665;28;19904;-87
2023/05/07 02:29:24;;;;;;;;;;;12.60;99.90;;;;;;5093971;28;20344;-87
2023/05/07 02:31:50;;;;;;;;;;;12.70;99.90;;;;;;5093991;28;19904;-87
2023/05/07 02:34:16;;;;;;;;;;;12.70;99.90;;;;;;5094311;28;19904;-86
2023/05/07 02:36:42;;;;;;;;;;;12.60;99.90;;;;;;5094084;28;20004;-87
2023/05/07 02:39:07;;;;;;;;;;;12.60;99.90;;;;;;5095074;28;20002;-87
2023/05/07 02:41:33;;;;;;;;;;;12.60;99.90;;;;;;5094688;28;20658;-86
2023/05/07 02:43:58;;;;;;;;;;;12.70;99.90;;;;;;5093811;28;20372;-87
2023/05/07 02:46:24;;;;;;;;;;;12.70;99.90;;;;;;5093781;28;19911;-87
2023/05/07 02:48:49;;;;;;;;;;;12.70;99.90;;;;;;5093874;28;19914;-86
2023/05/07 02:51:16;;;;;;;;;;;12.70;99.90;;;;;;5095049;28;19904;-85
2023/05/07 02:53:41;;;;;;;;;;;12.80;99.90;;;;;;5093822;28;19908;-86
2023/05/07 02:56:07;;;;;;;;;;;12.80;99.90;;;;;;5093533;28;20063;-86
2023/05/07 02:58:33;;;;;;;;;;;12.80;99.90;;;;;;5093542;28;19916;-86
2023/05/07 03:00:58;;;;;;;;;;;12.80;99.90;;;;;;5093907;28;19915;-87
2023/05/07 03:03:24;;;;;;;;;;;12.80;99.90;;;;;;5092790;28;19904;-87
2023/05/07 03:05:50;;;;;;;;;;;12.90;99.90;;;;;;5093438;28;19904;-87
2023/05/07 03:08:15;;;;;;;;;;;12.90;99.90;;;;;;5093397;28;20322;-87
2023/05/07 03:10:41;;;;;;;;;;;13.00;99.90;;;;;;5093245;28;20293;-86
2023/05/07 03:13:06;;;;;;;;;;;13.00;99.90;;;;;;5093581;28;20379;-86
2023/05/07 03:15:32;;;;;;;;;;;13.00;99.90;;;;;;5093576;28;19954;-86
2023/05/07 03:17:57;;;;;;;;;;;13.00;99.90;;;;;;5094352;28;19904;-86
2023/05/07 03:20:23;;;;;;;;;;;13.00;99.90;;;;;;5092763;28;19919;-86
2023/05/07 03:22:48;;;;;;;;;;;13.00;99.90;;;;;;5092630;28;19912;-85
2023/05/07 03:25:14;;;;;;;;;;;13.10;99.90;;;;;;5093613;28;19904;-86
2023/05/07 03:27:41;;;;;;;;;;;13.10;99.90;;;;;;5093079;28;19951;-86
2023/05/07 03:30:07;;;;;;;;;;;13.10;99.90;;;;;;5092841;28;19904;-87
2023/05/07 03:32:33;;;;;;;;;;;13.20;99.90;;;;;;5093860;28;19939;-87
2023/05/07 03:34:58;;;;;;;;;;;13.20;99.90;;;;;;5093292;28;19904;-86
2023/05/07 03:37:24;;;;;;;;;;;13.20;99.90;;;;;;5093165;28;19904;-88
2023/05/07 03:39:49;;;;;;;;;;;13.30;99.90;;;;;;5094042;28;19960;-87
2023/05/07 03:42:15;;;;;;;;;;;13.30;99.90;;;;;;5093544;28;20379;-87
2023/05/07 03:44:40;;;;;;;;;;;13.40;99.90;;;;;;5091701;28;19908;-87
2023/05/07 03:47:06;;;;;;;;;;;13.40;99.90;;;;;;5090907;28;19904;-87
2023/05/07 03:49:31;;;;;;;;;;;13.50;99.90;;;;;;5093078;28;19904;-87
2023/05/07 03:51:57;;;;;;;;;;;13.60;99.90;;;;;;5092945;28;20261;-87
2023/05/07 03:54:22;;;;;;;;;;;13.60;99.90;;;;;;5093290;28;19914;-87
2023/05/07 03:56:48;;;;;;;;;;;13.60;99.90;;;;;;5092918;28;19904;-87
2023/05/07 03:59:14;;;;;;;;;;;13.70;99.90;;;;;;5092632;28;19916;-86
2023/05/07 04:01:39;;;;;;;;;;;13.80;99.90;;;;;;5092683;28;20426;-87
2023/05/07 04:04:05;;;;;;;;;;;13.80;99.90;;;;;;5092735;28;20129;-86
2023/05/07 04:06:31;;;;;;;;;;;13.90;99.90;;;;;;5092554;28;19943;-87
2023/05/07 04:08:57;;;;;;;;;;;13.90;99.90;;;;;;5092478;28;19950;-86
2023/05/07 04:11:22;;;;;;;;;;;14.00;99.90;;;;;;5092433;28;19908;-87
2023/05/07 04:13:48;;;;;;;;;;;14.00;99.90;;;;;;5092113;28;20012;-87
2023/05/07 04:16:13;;;;;;;;;;;14.10;99.90;;;;;;5091992;28;20360;-87
2023/05/07 04:18:39;;;;;;;;;;;14.10;99.90;;;;;;5091681;28;19920;-86
2023/05/07 04:21:05;;;;;;;;;;;14.20;99.90;;;;;;5092153;28;20329;-87
2023/05/07 04:23:31;;;;;;;;;;;14.20;99.90;;;;;;5092573;28;19911;-87
2023/05/07 04:25:57;;;;;;;;;;;14.30;99.90;;;;;;5092541;28;20395;-87
2023/05/07 04:28:22;;;;;;;;;;;14.30;99.90;;;;;;5092142;28;20392;-87
2023/05/07 04:30:48;;;;;;;;;;;14.30;99.90;;;;;;5091953;28;19904;-87
2023/05/07 04:33:14;;;;;;;;;;;14.40;99.90;;;;;;5091187;28;19904;-86
2023/05/07 04:35:40;;;;;;;;;;;14.40;99.90;;;;;;5091367;28;19986;-87
2023/05/07 04:38:06;;;;;;;;;;;14.60;99.90;;;;;;5091903;28;19942;-87
2023/05/07 04:40:32;;;;;;;;;;;14.60;99.90;;;;;;5093345;28;19923;-86
2023/05/07 04:42:57;;;;;;;;;;;14.70;99.90;;;;;;5093071;28;19904;-87
2023/05/07 04:45:23;;;;;;;;;;;14.80;99.90;;;;;;5092025;28;19912;-87
2023/05/07 04:47:48;;;;;;;;;;;14.90;99.90;;;;;;5091857;28;19915;-87
2023/05/07 04:50:14;;;;;;;;;;;15.00;99.90;;;;;;5093195;28;20044;-87
2023/05/07 04:52:39;;;;;;;;;;;15.10;99.90;;;;;;5091836;28;19962;-86
2023/05/07 04:55:05;;;;;;;;;;;15.20;99.90;;;;;;5091904;28;19904;-87
2023/05/07 04:57:30;;;;;;;;;;;15.30;99.90;;;;;;5091830;28;19943;-87
2023/05/07 04:59:57;;;;;;;;;;;15.40;99.90;;;;;;5092056;28;19912;-87
2023/05/07 05:02:22;;;;;;;;;;;15.40;99.90;;;;;;5091728;28;19904;-87
2023/05/07 05:04:48;;;;;;;;;;;15.60;99.90;;;;;;5091475;28;19990;-87
2023/05/07 05:07:13;;;;;;;;;;;15.70;99.90;;;;;;5091721;28;20296;-87
2023/05/07 05:09:39;;;;;;;;;;;15.80;99.90;;;;;;5091835;28;20218;-87
2023/05/07 05:12:07;;;;;;;;;;;15.80;99.90;;;;;;5092154;28;19908;-87
2023/05/07 05:14:32;;;;;;;;;;;15.90;99.90;;;;;;5090679;28;19999;-87
2023/05/07 05:16:58;;;;;;;;;;;16.00;99.90;;;;;;5091499;28;20049;-88
2023/05/07 05:19:23;;;;;;;;;;;16.10;99.90;;;;;;5091213;28;19981;-88
2023/05/07 05:21:49;;;;;;;;;;;16.20;99.90;;;;;;5091300;28;19908;-87
2023/05/07 05:24:15;;;;;;;;;;;16.20;99.90;;;;;;5089960;28;19911;-88
2023/05/07 05:26:40;;;;;;;;;;;16.30;99.90;;;;;;5092855;28;19908;-87
2023/05/07 05:29:06;;;;;;;;;;;16.50;99.90;;;;;;5094109;28;19915;-86
2023/05/07 05:31:31;;;;;;;;;;;16.70;99.90;;;;;;5094840;28;19916;-87
2023/05/07 05:33:57;;;;;;;;;;;16.90;99.90;;;;;;5095125;28;19908;-87
2023/05/07 05:36:22;;;;;;;;;;;17.30;99.90;;;;;;5094560;28;19911;-86
2023/05/07 05:38:48;;;;;;;;;;;17.90;99.90;;;;;;5093709;28;19911;-88
2023/05/07 05:41:13;;;;;;;;;;;18.80;99.90;;;;;;5095136;28;20040;-88
2023/05/07 05:43:39;;;;;;;;;;;19.50;99.90;;;;;;5095345;28;20003;-88
2023/05/07 05:46:05;;;;;;;;;;;19.80;99.90;;;;;;5095205;28;19904;-88
2023/05/07 05:48:31;;;;;;;;;;;19.90;99.90;;;;;;5094719;28;20022;-88
2023/05/07 05:50:56;;;;;;;;;;;19.90;99.90;;;;;;5095921;28;20292;-87
2023/05/07 05:53:22;;;;;;;;;;;19.90;99.90;;;;;;5094803;28;19951;-88
2023/05/07 05:55:48;;;;;;;;;;;20.00;99.90;;;;;;5095987;28;19904;-88
2023/05/07 05:58:15;;;;;;;;;;;20.10;99.90;;;;;;5094971;28;20008;-88
2023/05/07 06:00:40;;;;;;;;;;;20.20;99.90;;;;;;5094715;28;19911;-88
2023/05/07 06:03:06;;;;;;;;;;;20.20;99.90;;;;;;5094650;28;19904;-88
2023/05/07 06:05:31;;;;;;;;;;;20.30;99.90;;;;;;5094522;28;19904;-88
2023/05/07 06:07:57;;;;;;;;;;;20.30;99.90;;;;;;5094041;28;19964;-88
2023/05/07 06:10:23;;;;;;;;;;;20.50;99.90;;;;;;5091992;28;19908;-88
2023/05/07 06:12:49;;;;;;;;;;;20.90;99.90;;;;;;5095388;28;19974;-87
2023/05/07 06:15:15;;;;;;;;;;;21.40;99.90;;;;;;5095293;28;20352;-89
2023/05/07 06:17:40;;;;;;;;;;;22.50;99.90;;;;;;5094461;28;19987;-89
2023/05/07 06:20:06;;;;;;;;;;;23.60;93.60;;;;;;5092951;28;19916;-89
2023/05/07 06:22:32;;;;;;;;;;;24.50;88.30;;;;;;5095086;28;19947;-89
2023/05/07 06:24:57;;;;;;;;;;;25.20;82.50;;;;;;5093003;28;19911;-89
2023/05/07 06:27:23;;;;;;;;;;;26.00;74.60;;;;;;5093322;28;19908;-89
2023/05/07 06:29:48;;;;;;;;;;;26.70;65.50;;;;;;5094321;28;19908;-90
2023/05/07 06:32:14;;;;;;;;;;;27.00;64.40;;;;;;5094106;28;20337;-89
2023/05/07 06:34:40;;;;;;;;;;;26.70;59.60;;;;;;5092801;28;19934;-90
2023/05/07 06:37:05;;;;;;;;;;;26.30;59.60;;;;;;5094092;28;20369;-89
2023/05/07 06:39:31;;;;;;;;;;;26.10;60.20;;;;;;5095820;28;19915;-89
2023/05/07 06:41:57;;;;;;;;;;;26.20;60.60;;;;;;5094281;28;19962;-89
2023/05/07 06:44:22;;;;;;;;;;;26.10;58.60;;;;;;5093296;28;19904;-88
2023/05/07 06:46:48;;;;;;;;;;;26.10;58.20;;;;;;5093311;28;19996;-87
2023/05/07 06:49:14;;;;;;;;;;;25.70;62.80;;;;;;5091836;28;19919;-87
2023/05/07 06:51:39;;;;;;;;;;;25.80;64.00;;;;;;5091844;28;19985;-90
2023/05/07 06:54:05;;;;;;;;;;;25.90;62.80;;;;;;5091995;28;19912;-89
2023/05/07 06:56:31;;;;;;;;;;;26.00;71.30;;;;;;5091265;28;19908;-88
2023/05/07 06:58:56;;;;;;;;;;;25.90;72.40;;;;;;5092336;28;19911;-89
2023/05/07 07:01:22;;;;;;;;;;;26.00;70.50;;;;;;5092488;28;19904;-88
2023/05/07 07:03:47;;;;;;;;;;;26.20;69.30;;;;;;5092021;28;19904;-89
2023/05/07 07:06:13;;;;;;;;;;;26.50;67.80;;;;;;5093855;28;19907;-90
2023/05/07 07:08:39;;;;;;;;;;;27.00;68.80;;;;;;5091864;28;19927;-90
2023/05/07 07:11:04;;;;;;;;;;;27.60;65.00;;;;;;5093339;28;20272;-89
2023/05/07 07:13:30;;;;;;;;;;;28.10;59.10;;;;;;5091301;28;19947;-90
2023/05/07 07:15:55;;;;;;;;;;;28.50;54.70;;;;;;5093405;28;19911;-87
2023/05/07 07:18:21;;;;;;;;;;;28.90;54.80;;;;;;5092386;28;19908;-87
2023/05/07 07:20:46;;;;;;;;;;;29.40;51.20;;;;;;5091001;28;19951;-86
2023/05/07 07:23:12;;;;;;;;;;;29.50;49.60;;;;;;5092201;28;20313;-86
2023/05/07 07:25:37;;;;;;;;;;;29.80;46.50;;;;;;5092233;28;19947;-88
2023/05/07 07:28:03;;;;;;;;;;;29.80;43.70;;;;;;5091673;28;19962;-86
2023/05/07 07:30:29;;;;;;;;;;;29.90;45.00;;;;;;5093460;28;19957;-87
2023/05/07 07:32:56;;;;;;;;;;;30.30;44.10;;;;;;5093471;28;19904;-86
2023/05/07 07:35:21;;;;;;;;;;;30.30;42.10;;;;;;5090833;28;19958;-87
2023/05/07 07:37:47;;;;;;;;;;;30.00;42.00;;;;;;5090301;28;19904;-86
2023/05/07 07:40:12;;;;;;;;;;;30.10;43.00;;;;;;5092157;28;19920;-87
2023/05/07 07:42:38;;;;;;;;;;;30.40;42.30;;;;;;5091064;28;20007;-87
2023/05/07 07:45:04;;;;;;;;;;;30.90;38.20;;;;;;5091504;28;19955;-86
2023/05/07 07:47:29;;;;;;;;;;;30.90;35.80;;;;;;5091578;28;19915;-87
2023/05/07 07:49:55;;;;;;;;;;;31.10;36.30;;;;;;5090394;28;19904;-88
2023/05/07 07:52:20;;;;;;;;;;;31.00;35.30;;;;;;5092587;28;19950;-87
2023/05/07 07:54:46;;;;;;;;;;;31.40;34.30;;;;;;5091555;28;19908;-86
2023/05/07 07:57:11;;;;;;;;;;;31.50;35.10;;;;;;5091070;28;19904;-87
2023/05/07 07:59:37;;;;;;;;;;;31.90;33.40;;;;;;5093011;28;19919;-86
2023/05/07 08:02:03;;;;;;;;;;;31.50;33.80;;;;;;5090200;28;19915;-88
2023/05/07 08:04:28;;;;;;;;;;;31.70;35.80;;;;;;5090369;28;19915;-88
2023/05/07 08:06:54;;;;;;;;;;;32.00;34.30;;;;;;5090275;28;20650;-88
2023/05/07 08:09:20;;;;;;;;;;;32.30;33.70;;;;;;5091493;28;19904;-88
2023/05/07 08:11:45;;;;;;;;;;;32.20;33.00;;;;;;5090930;28;19914;-87
2023/05/07 08:14:11;;;;;;;;;;;31.90;32.90;;;;;;5090270;28;19951;-86
2023/05/07 08:16:37;;;;;;;;;;;31.50;34.20;;;;;;5091638;28;19910;-87
2023/05/07 08:19:02;;;;;;;;;;;31.30;34.30;;;;;;5090041;28;19982;-86
2023/05/07 08:21:28;;;;;;;;;;;31.10;35.50;;;;;;5093202;28;20034;-88
2023/05/07 08:23:53;;;;;;;;;;;31.10;35.30;;;;;;5093151;28;20331;-88
2023/05/07 08:26:20;;;;;;;;;;;31.70;34.30;;;;;;5090996;28;19904;-87
2023/05/07 08:28:45;;;;;;;;;;;32.10;33.90;;;;;;5090640;28;20422;-85
2023/05/07 08:31:11;;;;;;;;;;;32.40;32.60;;;;;;5091357;28;19908;-87
2023/05/07 08:33:38;;;;;;;;;;;32.60;32.60;;;;;;5090229;28;19904;-88
2023/05/07 08:36:03;;;;;;;;;;;32.00;32.40;;;;;;5089500;28;19912;-86
2023/05/07 08:38:29;;;;;;;;;;;30.90;33.00;;;;;;5091788;28;20010;-86
2023/05/07 08:40:54;;;;;;;;;;;30.10;35.30;;;;;;5091684;28;19905;-85
2023/05/07 08:43:21;;;;;;;;;;;29.60;35.70;;;;;;5090985;28;20264;-87
2023/05/07 08:45:49;;;;;;;;;;;29.10;37.10;;;;;;5090425;28;19915;-86
2023/05/07 08:48:15;;;;;;;;;;;29.00;37.60;;;;;;5091331;28;19926;-85
2023/05/07 08:50:41;;;;;;;;;;;28.60;37.90;;;;;;5090303;28;20376;-88
2023/05/07 08:53:06;;;;;;;;;;;28.40;40.70;;;;;;5089507;28;19915;-89
2023/05/07 08:55:33;;;;;;;;;;;28.00;41.10;;;;;;5092207;28;19904;-88
2023/05/07 08:57:59;;;;;;;;;;;27.50;40.90;;;;;;5090259;28;20351;-87
2023/05/07 09:00:24;;;;;;;;;;;27.10;42.40;;;;;;5089323;28;20086;-87
2023/05/07 09:02:50;;;;;;;;;;;26.60;41.80;;;;;;5094371;28;19915;-88
2023/05/07 09:05:16;;;;;;;;;;;26.20;42.00;;;;;;5093877;28;19904;-88
2023/05/07 09:07:41;;;;;;;;;;;25.90;42.80;;;;;;5095388;28;19927;-88
2023/05/07 09:10:07;;;;;;;;;;;26.10;43.60;;;;;;5096004;28;19908;-89
2023/05/07 09:12:34;;;;;;;;;;;26.50;40.30;;;;;;5095779;28;19904;-88
2023/05/07 09:15:00;;;;;;;;;;;26.10;41.10;;;;;;5095321;28;19975;-89
2023/05/07 09:17:26;;;;;;;;;;;26.30;42.60;;;;;;5094937;28;20007;-87
2023/05/07 09:19:53;;;;;;;;;;;27.40;41.20;;;;;;5092913;28;19971;-90
2023/05/07 09:22:18;;;;;;;;;;;28.40;41.90;;;;;;5093966;28;19904;-88
2023/05/07 09:24:48;;;;;;;;;;;28.90;38.70;;;;;;5093331;28;19999;-86
2023/05/07 09:27:13;;;;;;;;;;;28.90;38.30;;;;;;5094573;28;19954;-85
2023/05/07 09:29:38;;;;;;;;;;;28.90;36.20;;;;;;5095416;28;19939;-86
2023/05/07 09:32:08;;;;;;;;;;;28.30;36.70;;;;;;5095414;28;20436;-86
2023/05/07 09:34:34;;;;;;;;;;;28.00;38.10;;;;;;5094837;28;19914;-89
2023/05/07 09:37:03;;;;;;;;;;;27.90;37.90;;;;;;5095307;28;19904;-89
2023/05/07 09:39:58;;;;;;;;;;;27.60;40.30;;;;;;5094836;28;19961;-88
2023/05/07 09:42:25;;;;;;;;;;;27.70;41.60;;;;;;5086995;28;20402;-89
2023/05/07 09:44:51;;;;;;;;;;;28.10;43.10;;;;;;5096226;28;19906;-89
2023/05/07 09:47:18;;;;;;;;;;;28.30;42.80;;;;;;5093856;28;19972;-85
2023/05/07 09:49:47;;;;;;;;;;;28.60;41.00;;;;;;5093582;28;19912;-86
2023/05/07 09:52:13;;;;;;;;;;;28.90;42.70;;;;;;5093033;28;19904;-85
2023/05/07 09:54:40;;;;;;;;;;;28.80;41.60;;;;;;5093694;28;19914;-85
2023/05/07 09:57:06;;;;;;;;;;;28.60;40.90;;;;;;5094167;28;19904;-88
2023/05/07 09:59:32;;;;;;;;;;;28.00;42.10;;;;;;5094505;28;19912;-88
2023/05/07 10:01:59;;;;;;;;;;;27.30;43.90;;;;;;5093178;28;20308;-87
2023/05/07 10:04:25;;;;;;;;;;;27.10;43.70;;;;;;5093349;28;20370;-88
2023/05/07 10:06:50;;;;;;;;;;;26.70;44.90;;;;;;5094315;28;19914;-87
2023/05/07 10:09:16;;;;;;;;;;;26.50;45.50;;;;;;5096248;28;19904;-88
2023/05/07 10:11:42;;;;;;;;;;;26.30;45.80;;;;;;5094436;28;19904;-88
2023/05/07 10:14:09;;;;;;;;;;;26.20;46.60;;;;;;5097615;28;19911;-86
2023/05/07 10:16:38;;;;;;;;;;;25.70;47.90;;;;;;5092550;28;20021;-87
2023/05/07 10:19:04;;;;;;;;;;;25.40;50.50;;;;;;5093799;28;19922;-87
2023/05/07 10:21:31;;;;;;;;;;;25.10;54.10;;;;;;5094722;28;19904;-87
2023/05/07 10:24:05;;;;;;;;;;;24.70;52.70;;;;;;5094249;28;20339;-88
2023/05/07 10:26:32;;;;;;;;;;;24.10;49.70;;;;;;5094321;28;20573;-87
2023/05/07 10:29:01;;;;;;;;;;;23.70;59.90;;;;;;5093776;28;19911;-88
2023/05/07 10:31:45;;;;;;;;;;;23.40;60.30;;;;;;5093301;28;19904;-88
2023/05/07 10:34:13;;;;;;;;;;;23.20;56.40;;;;;;5094653;28;19915;-86
2023/05/07 10:36:39;;;;;;;;;;;23.50;53.10;;;;;;5094594;28;19995;-86
2023/05/07 10:39:05;;;;;;;;;;;23.60;60.10;;;;;;5091534;28;19916;-87
2023/05/07 10:41:31;;;;;;;;;;;23.90;57.70;;;;;;5091416;28;19904;-86
2023/05/07 10:43:57;;;;;;;;;;;24.40;56.60;;;;;;5091428;28;19991;-86
2023/05/07 10:46:22;;;;;;;;;;;24.80;46.70;;;;;;5092054;28;19904;-87
2023/05/07 10:49:00;;;;;;;;;;;25.20;42.40;;;;;;5090946;28;20360;-85
2023/05/07 10:51:26;;;;;;;;;;;25.70;40.10;;;;;;5092549;28;20373;-86
2023/05/07 10:54:24;;;;;;;;;;;26.10;40.90;;;;;;5092751;28;19915;-87
2023/05/07 10:56:50;;;;;;;;;;;26.40;40.00;;;;;;5057277;28;19915;-85
2023/05/07 10:59:30;;;;;;;;;;;26.70;41.00;;;;;;5090026;28;19978;-86
2023/05/07 11:01:57;;;;;;;;;;;26.80;39.90;;;;;;5091869;28;20372;-86
2023/05/07 11:04:31;;;;;;;;;;;26.60;39.90;;;;;;5090840;28;19908;-86
2023/05/07 11:07:05;;;;;;;;;;;26.60;40.60;;;;;;5090893;28;20021;-86
2023/05/07 11:09:50;;;;;;;;;;;26.70;41.90;;;;;;5090552;28;19986;-87
2023/05/07 11:12:16;;;;;;;;;;;26.80;40.60;;;;;;5091639;28;19916;-87
2023/05/07 11:14:45;;;;;;;;;;;26.80;37.90;;;;;;5090333;28;19908;-86
2023/05/07 11:17:11;;;;;;;;;;;26.70;38.40;;;;;;5092009;28;19914;-86
2023/05/07 11:19:53;;;;;;;;;;;26.50;37.50;;;;;;5090645;28;19920;-86
2023/05/07 11:22:31;;;;;;;;;;;26.20;38.80;;;;;;5090173;28;19904;-87
2023/05/07 11:25:00;;;;;;;;;;;26.30;40.60;;;;;;5090928;28;19915;-87
2023/05/07 11:27:26;;;;;;;;;;;26.40;41.30;;;;;;5090181;28;19904;-86
2023/05/07 11:29:52;;;;;;;;;;;26.40;41.90;;;;;;5092145;28;19914;-87
2023/05/07 11:32:24;;;;;;;;;;;26.50;40.40;;;;;;5091657;28;19955;-85
2023/05/07 11:34:53;;;;;;;;;;;26.30;40.90;;;;;;5090359;28;19903;-86
2023/05/07 11:37:19;;;;;;;;;;;26.10;41.70;;;;;;5090421;28;19908;-86
2023/05/07 11:39:45;;;;;;;;;;;25.80;41.50;;;;;;5089941;28;19912;-86
2023/05/07 11:42:27;;;;;;;;;;;25.90;43.00;;;;;;5090486;28;19915;-86
2023/05/07 11:44:53;;;;;;;;;;;25.90;41.40;;;;;;5090133;28;19915;-86
2023/05/07 11:47:19;;;;;;;;;;;25.80;41.00;;;;;;5090879;28;19908;-86
2023/05/07 11:49:52;;;;;;;;;;;25.80;41.90;;;;;;5091018;28;19960;-87
2023/05/07 11:52:18;;;;;;;;;;;25.70;42.60;;;;;;5090113;28;20461;-87
2023/05/07 11:54:57;;;;;;;;;;;25.60;45.00;;;;;;5090227;28;19912;-86
2023/05/07 11:57:26;;;;;;;;;;;25.70;45.70;;;;;;5089941;28;19904;-85
2023/05/07 11:59:55;;;;;;;;;;;25.60;44.00;;;;;;5089658;28;19915;-86
2023/05/07 12:02:20;;;;;;;;;;;25.70;44.50;;;;;;5090011;28;19908;-87
2023/05/07 12:04:46;;;;;;;;;;;25.70;45.70;;;;;;5090216;28;19908;-86
2023/05/07 12:07:15;;;;;;;;;;;25.70;46.50;;;;;;5089831;28;19908;-86
2023/05/07 12:09:41;;;;;;;;;;;25.70;46.30;;;;;;5089941;28;19911;-86
2023/05/07 12:12:07;;;;;;;;;;;25.80;46.30;;;;;;5089800;28;19904;-85
2023/05/07 12:14:32;;;;;;;;;;;25.90;45.50;;;;;;5090202;28;20428;-87
2023/05/07 12:17:04;;;;;;;;;;;25.90;45.00;;;;;;5089960;28;19911;-86
2023/05/07 12:19:30;;;;;;;;;;;25.80;43.70;;;;;;5089349;28;19926;-86
2023/05/07 12:21:56;;;;;;;;;;;25.80;44.70;;;;;;5089815;28;19904;-88
2023/05/07 12:24:21;;;;;;;;;;;25.80;43.90;;;;;;5089934;28;20308;-85
2023/05/07 12:26:47;;;;;;;;;;;25.90;45.10;;;;;;5089853;28;19908;-86
2023/05/07 12:29:13;;;;;;;;;;;26.00;44.20;;;;;;5090480;28;20434;-86
2023/05/07 12:31:42;;;;;;;;;;;26.10;43.90;;;;;;5089786;28;19909;-86
2023/05/07 12:34:08;;;;;;;;;;;26.30;43.10;;;;;;5089303;28;19904;-85
2023/05/07 12:36:38;;;;;;;;;;;26.40;43.60;;;;;;5092261;28;19994;-87
2023/05/07 12:39:04;;;;;;;;;;;26.50;40.80;;;;;;5093308;28;20048;-85
2023/05/07 12:41:30;;;;;;;;;;;26.50;41.80;;;;;;5094047;28;20295;-86
2023/05/07 12:43:58;;;;;;;;;;;26.40;42.40;;;;;;5094887;28;19994;-86
2023/05/07 12:46:24;;;;;;;;;;;26.40;43.80;;;;;;5093563;28;19959;-87
2023/05/07 12:48:49;;;;;;;;;;;26.50;43.40;;;;;;5095127;28;20331;-86
2023/05/07 12:51:15;;;;;;;;;;;26.40;42.60;;;;;;5094935;28;20285;-86
2023/05/07 12:53:44;;;;;;;;;;;26.20;42.20;;;;;;5093440;28;20382;-86
2023/05/07 12:56:10;;;;;;;;;;;25.70;42.60;;;;;;5093922;28;19915;-86
2023/05/07 12:58:35;;;;;;;;;;;25.30;43.30;;;;;;5096920;28;19965;-86
2023/05/07 13:01:04;;;;;;;;;;;24.50;47.50;;;;;;5093622;28;19999;-85
2023/05/07 13:03:31;;;;;;;;;;;23.20;57.40;;;;;;5094489;28;20007;-86
2023/05/07 13:05:58;;;;;;;;;;;22.30;62.30;;;;;;5093256;28;19908;-85
2023/05/07 13:08:34;;;;;;;;;;;21.40;75.00;;;;;;5093578;28;19904;-85
2023/05/07 13:11:03;;;;;;;;;;;21.30;81.10;;;;;;5093658;28;20176;-85
2023/05/07 13:13:30;;;;;;;;;;;21.30;81.70;;;;;;5093260;28;20015;-85
2023/05/07 13:15:55;;;;;;;;;;;21.40;70.60;;;;;;5094447;28;19954;-87
2023/05/07 13:18:21;;;;;;;;;;;21.50;72.90;;;;;;5093313;28;19904;-87
2023/05/07 13:20:46;;;;;;;;;;;21.60;75.30;;;;;;5093278;28;19920;-86
2023/05/07 13:23:12;;;;;;;;;;;21.80;70.00;;;;;;5092399;28;19904;-86
2023/05/07 13:25:38;;;;;;;;;;;21.90;74.80;;;;;;5092341;28;19915;-85
2023/05/07 13:28:04;;;;;;;;;;;22.10;81.90;;;;;;5092871;28;19904;-85
2023/05/07 13:30:30;;;;;;;;;;;22.20;81.50;;;;;;5093452;28;20433;-85
2023/05/07 13:32:55;;;;;;;;;;;22.20;73.70;;;;;;5094082;28;19908;-87
2023/05/07 13:35:21;;;;;;;;;;;22.10;75.80;;;;;;5094258;28;19915;-86
2023/05/07 13:37:48;;;;;;;;;;;22.10;81.30;;;;;;5094083;28;19908;-85
2023/05/07 13:40:14;;;;;;;;;;;22.10;79.40;;;;;;5093758;28;19962;-86
2023/05/07 13:42:41;;;;;;;;;;;22.20;76.70;;;;;;5093289;28;19904;-86
2023/05/07 13:45:07;;;;;;;;;;;22.40;76.60;;;;;;5092984;28;20419;-86
2023/05/07 13:47:32;;;;;;;;;;;22.70;72.50;;;;;;5092646;28;19951;-87
2023/05/07 13:49:58;;;;;;;;;;;22.90;67.80;;;;;;5093252;28;19911;-87
2023/05/07 13:52:23;;;;;;;;;;;23.20;67.50;;;;;;5094498;28;19908;-87
2023/05/07 13:54:49;;;;;;;;;;;23.40;65.40;;;;;;5093471;28;20521;-87
2023/05/07 13:57:15;;;;;;;;;;;23.50;62.10;;;;;;5093938;28;20360;-87
2023/05/07 13:59:40;;;;;;;;;;;23.70;64.00;;;;;;5092523;28;20230;-86